Station: ELLX - 20/10/2019 07:20Z (il y a 9 minutes)
ELLX 200720Z 06005KT 030V100 1500 RA BR BKN000 OVC003 12/11 Q1007 TEMPO 2000
Vent du 060º - 5 kt (vent de direction variable de 030º à 100º)
Visibilité: 1500 m (pluie) (brume)
Ciel 75% couvert à 000 pieds - Ciel couvert à 300 pieds
Température: +12ºC - Point de rosée: +11ºC - QNH: 1007 hPa
Temporairement
Visibilité: 2000 m